This is the latest recevied weather packets stored in our database for station/object WR7DW-3. If no packets are shown the sender has not sent any weather packets the latest 1 day(s).
| Time | Temp. | Humidity | Pressure | Rain* | Wind** | Luminosity | Snow |
|---|---|---|---|---|---|---|---|
| 1778096676 | 5.56° C | 60% | 1009.6 hPa | 0 mm | - | - | - |
| 1778095776 | 4.44° C | 60% | 1009.8 hPa | 0 mm | - | - | - |
| 1778094876 | 4.44° C | 60% | 1010.2 hPa | 0 mm | - | - | - |
| 1778093976 | 3.89° C | 60% | 1010.2 hPa | 0 mm | - | - | - |
| 1778093076 | 3.33° C | 61% | 1010.4 hPa | 0 mm | - | - | - |
| 1778092176 | 3.33° C | 61% | 1010.4 hPa | 0 mm | - | - | - |
| 1778091276 | 2.78° C | 60% | 1010.5 hPa | 0 mm | - | - | - |
| 1778090376 | 2.78° C | 63% | 1010.7 hPa | 0 mm | - | - | - |
| 1778089476 | 2.22° C | 62% | 1011 hPa | 0 mm | - | - | - |
| 1778088576 | 1.67° C | 66% | 1011.1 hPa | 0 mm | - | - | - |
| 1778087676 | 1.67° C | 64% | 1011.2 hPa | 0 mm | - | - | - |
| 1778083176 | 0.56° C | 61% | 1011.3 hPa | 0 mm | - | - | - |
| 1778066977 | -1.67° C | 64% | 1011.9 hPa | 0 mm | - | - | - |
| 1778066077 | -1.11° C | 62% | 1011.9 hPa | 0 mm | - | - | - |
| 1778065177 | -1.11° C | 64% | 1012.1 hPa | 0 mm | - | - | - |
| 1778064277 | -1.67° C | 66% | 1012 hPa | 0 mm | - | - | - |
| 1778063377 | -1.67° C | 65% | 1012.1 hPa | 0 mm | - | - | - |
| 1778062477 | -1.11° C | 65% | 1012.2 hPa | 0 mm | - | - | - |
| 1778061577 | -1.11° C | 64% | 1012.2 hPa | 0 mm | - | - | - |
| 1778060677 | -1.11° C | 64% | 1012.4 hPa | 0 mm | - | - | - |
| 1778059777 | -1.11° C | 64% | 1012.4 hPa | 0 mm | - | - | - |
| 1778058877 | -1.11° C | 64% | 1012.5 hPa | 0 mm | - | - | - |
| 1778057077 | -0.56° C | 63% | 1012.3 hPa | 0 mm | - | - | - |
| 1778055277 | -0.56° C | 62% | 1012.4 hPa | 0 mm | - | - | - |
| 1778054377 | -1.11° C | 63% | 1012.6 hPa | 0 mm | - | - | - |
* Rain latest hour (hover to see other rain measurements)
** Current wind speed in m/s (hover to see current wind gust speed)